M I D A S
Marine Information and Data Acquisition System
Tripno 1117 of the Zeeleeuw from 2006-06-28 06:48:05 to 2006-06-28 13:31:50
Back to CruiseResearch ActivitiesStationsMapUnderway DataData graphs

EquipmentUnitsComment
TimeDGPSUTC
LatitudeDGPSDM.mWGS84
LongitudeDGPSDM.mWGS84
HeadingGyrodeg 
SOGDGPSknotsSpeed over ground
COGDGPSdegCourse over ground
DepthEcho soundermeters200 kHz
Missing or incorrect values are displayed as -999
Navigation data collected by the RV Zeeleeuw from 2006-06-28 06:48:06 to 2006-06-28 13:44:32
Time Latitude Longitude Heading SOG COG Depth
2006-06-28 06:49:11 51°13.61 2°56.062 114.5 2.4 294 -999
2006-06-28 06:50:11 51°13.633 2°55.982 115.5 3.7 294 -999
2006-06-28 06:51:12 51°13.66 2°55.889 121.9 3.8 298 -999
2006-06-28 06:52:11 51°13.695 2°55.803 127.5 4.2 306 -999
2006-06-28 06:53:11 51°13.723 2°55.735 117.5 2 300 10.9
2006-06-28 06:54:10 51°13.731 2°55.725 81.4 0.8 60 10.2
2006-06-28 06:55:11 51°13.729 2°55.72 45 0.5 246 9.9
2006-06-28 06:56:10 51°13.751 2°55.714 345.5 2.9 337 9
2006-06-28 06:57:11 51°13.829 2°55.638 333.6 7.3 332 9.6
2006-06-28 06:58:11 51°13.946 2°55.55 339 7.3 335 9.9
2006-06-28 06:59:11 51°14.051 2°55.475 340.3 6.8 336 9.7
2006-06-28 07:00:11 51°14.172 2°55.379 334.2 9 329 9.6
2006-06-28 07:01:11 51°14.289 2°55.205 314.8 10.2 311 9.4
2006-06-28 07:02:11 51°14.393 2°54.972 304.8 11.2 300 9.7
2006-06-28 07:03:11 51°14.49 2°54.684 307.7 13.1 298 9.9
2006-06-28 07:04:10 51°14.599 2°54.382 311.5 13.4 302 9.3
2006-06-28 07:05:10 51°14.732 2°54.104 321.5 13 313 8.9
2006-06-28 07:06:11 51°14.906 2°53.913 342.7 12.3 333 8.2
2006-06-28 07:07:11 51°15.087 2°53.764 343.3 12.4 333 8.3
2006-06-28 07:08:11 51°15.267 2°53.603 340.1 12.5 329 8.8
2006-06-28 07:09:11 51°15.444 2°53.432 337.8 12.5 328 9.3
2006-06-28 07:10:11 51°15.623 2°53.264 339.6 12.6 329 9.9
2006-06-28 07:11:11 51°15.803 2°53.096 342.6 12.5 333 10.5
2006-06-28 07:12:11 51°15.991 2°52.95 343.8 12.5 334 10.9
2006-06-28 07:13:11 51°16.18 2°52.813 347.2 12.5 337 11
2006-06-28 07:14:11 51°16.372 2°52.686 346.6 12.5 337 11
2006-06-28 07:15:11 51°16.564 2°52.557 347.9 12.5 338 10.3
2006-06-28 07:16:11 51°16.755 2°52.435 348.3 12.2 338 8.9
2006-06-28 07:17:11 51°16.946 2°52.317 347 12.3 336 8.7
2006-06-28 07:18:11 51°17.136 2°52.198 353.4 12.2 344 9.4
2006-06-28 07:19:12 51°17.334 2°52.112 354.4 12.1 344 9.5
2006-06-28 07:20:10 51°17.498 2°51.947 327.8 12.5 313 9.4
2006-06-28 07:21:10 51°17.596 2°51.648 293.3 13.1 283 8.7
2006-06-28 07:22:11 51°17.632 2°51.294 292.7 13.2 287 8.6
2006-06-28 07:23:11 51°17.708 2°50.961 298.6 13.5 290 9.3
2006-06-28 07:24:11 51°17.781 2°50.619 297.4 13.6 289 10.9
2006-06-28 07:25:11 51°17.852 2°50.273 296.1 13.7 288 11.8
2006-06-28 07:26:11 51°17.928 2°49.93 300 13.7 291 12.3
2006-06-28 07:27:11 51°18.011 2°49.592 300.6 13.7 292 12.5
2006-06-28 07:28:11 51°18.096 2°49.257 301.5 13.5 293 10.7
2006-06-28 07:29:11 51°18.188 2°48.933 305.2 13.3 297 9
2006-06-28 07:30:11 51°18.298 2°48.622 310.9 13.4 302 9.4
2006-06-28 07:31:10 51°18.412 2°48.321 309.9 13.5 301 9.8
2006-06-28 07:32:11 51°18.518 2°47.997 300.8 13.7 292 12.6
2006-06-28 07:33:11 51°18.612 2°47.666 305.7 13.7 296 14.6
2006-06-28 07:34:11 51°18.714 2°47.345 306.2 13.5 297 16.6
2006-06-28 07:35:10 51°18.814 2°47.028 306.2 13.6 297 18.5
2006-06-28 07:36:11 51°18.917 2°46.696 306 13.7 296 19.6
2006-06-28 07:37:11 51°19.019 2°46.365 306.5 13.9 296 20.1
2006-06-28 07:38:11 51°19.122 2°46.038 306.5 13.8 296 18.5
2006-06-28 07:39:11 51°19.225 2°45.711 306.2 13.8 297 15.7
2006-06-28 07:40:11 51°19.331 2°45.386 306.9 13.8 298 11.3
2006-06-28 07:41:11 51°19.44 2°45.06 306.8 14.1 297 13.2
2006-06-28 07:42:11 51°19.537 2°44.727 303.7 13.6 296 20.3
2006-06-28 07:43:11 51°19.627 2°44.394 301.8 13.6 294 21.4
2006-06-28 07:44:11 51°19.708 2°44.052 298 13.9 290 22.8
2006-06-28 07:45:11 51°19.789 2°43.706 299.2 14 290 23.1
2006-06-28 07:46:11 51°19.865 2°43.355 296.4 14 288 24.2
2006-06-28 07:47:11 51°19.942 2°43.004 297.9 14 290 24.5
2006-06-28 07:48:11 51°20.02 2°42.655 296.4 13.9 290 23
2006-06-28 07:49:11 51°20.098 2°42.306 297.8 13.9 290 21.8
2006-06-28 07:50:11 51°20.171 2°41.953 297.9 14 289 17.4
2006-06-28 07:51:11 51°20.238 2°41.597 289.7 14.1 281 18.3
2006-06-28 07:52:11 51°20.283 2°41.233 288.3 14 280 18.9
2006-06-28 07:53:10 51°20.328 2°40.871 285.4 14.2 279 27
2006-06-28 07:54:11 51°20.37 2°40.494 287.6 14.2 280 27
2006-06-28 07:55:11 51°20.409 2°40.126 284.9 14 279 26.3
2006-06-28 07:56:12 51°20.443 2°39.75 284.3 14.1 278 25.3
2006-06-28 07:57:11 51°20.478 2°39.386 284.8 14.1 279 23.8
2006-06-28 07:58:12 51°20.515 2°39.006 285.2 14.2 278 23.6
2006-06-28 07:59:11 51°20.549 2°38.637 285.2 14.3 279 22.2
2006-06-28 08:00:11 51°20.589 2°38.261 284.5 14.4 279 21.2
2006-06-28 08:01:11 51°20.626 2°37.882 285.3 14.5 280 22.4
2006-06-28 08:02:11 51°20.667 2°37.506 285.2 14.4 280 21.8
2006-06-28 08:03:10 51°20.706 2°37.133 285.6 14.5 280 21.8
2006-06-28 08:04:10 51°20.744 2°36.756 284.5 14.4 278 20.8
2006-06-28 08:05:12 51°20.784 2°36.368 286.2 14.3 280 20.7
2006-06-28 08:06:11 51°20.821 2°36 283.8 14.3 278 23.4
2006-06-28 08:07:10 51°20.856 2°35.63 286.6 14.2 280 27
2006-06-28 08:08:11 51°20.893 2°35.247 285.7 14.4 278 29
2006-06-28 08:09:12 51°20.927 2°34.86 281.6 14.6 277 30.3
2006-06-28 08:10:11 51°20.946 2°34.482 278 14.6 272 29.9
2006-06-28 08:11:12 51°20.961 2°34.078 279.2 15 273 29.6
2006-06-28 08:12:12 51°20.975 2°33.678 279.8 15.1 274 29.7
2006-06-28 08:13:11 51°20.991 2°33.284 279.3 15.1 273 29.2
2006-06-28 08:14:12 51°21.007 2°32.877 279.8 15 274 28.5
2006-06-28 08:15:11 51°21.021 2°32.485 279 15 275 26
2006-06-28 08:16:12 51°21.036 2°32.081 278.7 14.9 274 17.3
2006-06-28 08:17:11 51°21.054 2°31.691 279.7 14.9 277 10.3
2006-06-28 08:18:11 51°21.079 2°31.292 282.3 15.1 279 10.1
2006-06-28 08:19:11 51°21.127 2°30.89 287.8 15.1 282 18.7
2006-06-28 08:20:11 51°21.232 2°30.554 311.3 13.8 302 22.1
2006-06-28 08:21:12 51°21.358 2°30.242 312.5 13.5 303 22.1
2006-06-28 08:22:11 51°21.466 2°29.929 308.4 13.7 297 18.4
2006-06-28 08:23:12 51°21.584 2°29.606 311.5 13.8 302 29.7
2006-06-28 08:24:11 51°21.699 2°29.293 311.2 13.9 302 31.3
2006-06-28 08:25:11 51°21.816 2°28.968 310.5 14 300 31.6
2006-06-28 08:26:11 51°21.934 2°28.649 310.6 13.9 300 32.1
2006-06-28 08:27:12 51°22.057 2°28.329 312.9 13.9 302 31.9
2006-06-28 08:28:11 51°22.177 2°28.022 313.3 13.8 303 32
2006-06-28 08:29:11 51°22.296 2°27.708 312.6 13.7 301 32.3
2006-06-28 08:30:11 51°22.416 2°27.395 312.8 13.8 301 33.4
2006-06-28 08:31:11 51°22.535 2°27.08 312.3 13.8 302 32.4
2006-06-28 08:32:11 51°22.662 2°26.779 318.1 13.6 308 32
2006-06-28 08:33:11 51°22.813 2°26.516 326.6 13.3 316 31.3
2006-06-28 08:34:11 51°22.945 2°26.325 334.7 9.5 319 23.3
2006-06-28 08:35:10 51°23.061 2°26.182 338.9 8.9 322 16.4
2006-06-28 08:36:12 51°23.187 2°26.055 349 8.5 334 16.2
2006-06-28 08:37:11 51°23.315 2°25.974 350.7 8.8 338 23.6
2006-06-28 08:38:12 51°23.474 2°25.898 355.7 11 344 29.5
2006-06-28 08:39:12 51°23.669 2°25.83 3.8 12 356 31.3
2006-06-28 08:40:11 51°23.865 2°25.809 5.5 12 355 31.3
2006-06-28 08:41:12 51°24.066 2°25.786 4.3 11.9 354 32
2006-06-28 08:42:11 51°24.261 2°25.753 4.4 12 354 31.9
2006-06-28 08:43:12 51°24.461 2°25.718 2.9 11.9 352 33.3
2006-06-28 08:44:12 51°24.657 2°25.679 3.3 11.9 353 35.1
2006-06-28 08:45:12 51°24.851 2°25.639 3.3 11.9 353 33.8
2006-06-28 08:46:12 51°25.044 2°25.6 3.2 11.7 352 33.1
2006-06-28 08:47:12 51°25.235 2°25.56 3.7 11.6 354 32.4
2006-06-28 08:48:12 51°25.426 2°25.517 2.2 11.6 351 31.2
2006-06-28 08:49:11 51°25.614 2°25.49 5.6 11.6 355 29.1
2006-06-28 08:50:11 51°25.806 2°25.463 4.9 11.6 354 26.6
2006-06-28 08:51:11 51°25.996 2°25.443 8.7 11.5 358 25.8
2006-06-28 08:52:10 51°26.186 2°25.427 7.4 11.5 358 25
2006-06-28 08:53:12 51°26.385 2°25.411 6.8 11.6 357 32
2006-06-28 08:54:12 51°26.578 2°25.397 7.7 11.6 358 32.5
2006-06-28 08:55:10 51°26.764 2°25.382 7.8 11.5 357 33.1
2006-06-28 08:56:12 51°26.963 2°25.369 8.3 11.4 359 33
2006-06-28 08:57:11 51°27.149 2°25.368 9.6 11.3 -999 33.1
2006-06-28 08:58:11 51°27.338 2°25.365 10 11.4 359 33.7
2006-06-28 08:59:11 51°27.526 2°25.364 10 11.3 -999 33.6
2006-06-28 09:00:11 51°27.714 2°25.368 11.6 11.3 1 33.8
2006-06-28 09:01:10 51°27.899 2°25.378 11.5 11.2 1 34.1
2006-06-28 09:02:11 51°28.09 2°25.388 10.8 11.4 1 34.8
2006-06-28 09:03:11 51°28.278 2°25.4 11.1 11.3 2 35.6
2006-06-28 09:04:11 51°28.465 2°25.409 11.7 11.2 3 33.1
2006-06-28 09:05:11 51°28.654 2°25.42 11 11.4 2 33.8
2006-06-28 09:06:12 51°28.845 2°25.433 12.5 11.3 4 32
2006-06-28 09:07:10 51°29.025 2°25.455 15.9 11.2 8 30.6
2006-06-28 09:08:10 51°29.208 2°25.507 17.6 11.2 9 24.7
2006-06-28 09:09:11 51°29.394 2°25.559 18 11.1 10 26.5
2006-06-28 09:10:12 51°29.579 2°25.611 16.9 11.2 8 29.1
2006-06-28 09:11:10 51°29.758 2°25.662 17.7 11.3 11 28.7
2006-06-28 09:12:12 51°29.949 2°25.718 17.7 11.2 10 29.8
2006-06-28 09:13:10 51°30.128 2°25.771 16.9 11.3 10 31
2006-06-28 09:14:12 51°30.317 2°25.844 24.6 11.3 18 32.5
2006-06-28 09:15:11 51°30.491 2°25.926 23.2 11 16 34.5
2006-06-28 09:16:11 51°30.667 2°26.004 23.2 11 15 35
2006-06-28 09:17:12 51°30.845 2°26.077 23.3 11 14 36.8
2006-06-28 09:18:11 51°31.014 2°26.162 30.4 10.7 24 37.7
2006-06-28 09:19:12 51°31.181 2°26.28 30.4 10.6 23 38.4
2006-06-28 09:20:12 51°31.345 2°26.391 29.8 11 24 38.2
2006-06-28 09:21:12 51°31.513 2°26.501 29.3 10.7 23 38.3
2006-06-28 09:22:12 51°31.68 2°26.612 29 11 21 38
2006-06-28 09:23:10 51°31.845 2°26.716 30.3 11 23 39.3
2006-06-28 09:24:11 51°32.018 2°26.829 28.6 11.2 20 39.2
2006-06-28 09:25:12 51°32.191 2°26.944 30.4 10.9 24 37.5
2006-06-28 09:26:12 51°32.36 2°27.057 30 10.9 23 37.9
2006-06-28 09:27:11 51°32.526 2°27.165 29 11 22 37.2
2006-06-28 09:28:11 51°32.694 2°27.275 29.6 11.1 22 36.7
2006-06-28 09:29:12 51°32.866 2°27.388 29.8 10.9 23 36
2006-06-28 09:30:11 51°33.033 2°27.498 29.9 10.9 25 36
2006-06-28 09:31:11 51°33.195 2°27.635 33.3 11 28 36.2
2006-06-28 09:32:11 51°33.359 2°27.768 33.1 11 27 37
2006-06-28 09:33:10 51°33.518 2°27.911 36 11.1 31 36.8
2006-06-28 09:34:10 51°33.677 2°28.059 35.5 11.1 29 35.1
2006-06-28 09:35:10 51°33.837 2°28.208 36.6 11.1 31 34.8
2006-06-28 09:36:12 51°34.003 2°28.362 35.7 11.1 29 36.5
2006-06-28 09:37:10 51°34.158 2°28.505 35 11.1 29 31.1
2006-06-28 09:38:11 51°34.323 2°28.652 35.5 11.1 30 31.7
2006-06-28 09:39:12 51°34.485 2°28.805 35.3 11 30 33.4
2006-06-28 09:40:11 51°34.642 2°28.949 34.2 11.1 30 35
2006-06-28 09:41:10 51°34.798 2°29.096 35.3 11 31 33.4
2006-06-28 09:42:11 51°34.961 2°29.247 33.9 11.1 30 35.6
2006-06-28 09:43:12 51°35.121 2°29.397 35.8 10.8 31 34.7
2006-06-28 09:44:12 51°35.276 2°29.546 35.6 11 31 36
2006-06-28 09:45:12 51°35.435 2°29.689 34.2 11 29 33.5
2006-06-28 09:46:12 51°35.589 2°29.839 36 11 32 35
2006-06-28 09:47:10 51°35.739 2°29.985 35 10.9 32 35.3
2006-06-28 09:48:12 51°35.9 2°30.136 34.1 10.8 30 35.3
2006-06-28 09:49:11 51°36.051 2°30.285 35.6 10.7 31 35.7
2006-06-28 09:50:12 51°36.208 2°30.435 35.5 10.8 31 35.5
2006-06-28 09:51:12 51°36.36 2°30.579 35 10.6 30 35.2
2006-06-28 09:52:12 51°36.512 2°30.729 36.2 10.7 32 35.8
2006-06-28 09:53:12 51°36.665 2°30.877 35.4 10.6 32 36.2
2006-06-28 09:54:12 51°36.818 2°31.026 34.1 10.8 30 37.3
2006-06-28 09:55:10 51°36.964 2°31.169 35.5 10.6 31 37.7
2006-06-28 09:56:11 51°37.118 2°31.32 35.3 10.7 32 38.6
2006-06-28 09:57:10 51°37.268 2°31.472 34.9 10.9 31 38.9
2006-06-28 09:58:11 51°37.423 2°31.63 36 10.9 32 38.9
2006-06-28 09:59:10 51°37.576 2°31.776 34.7 10.8 31 39.1
2006-06-28 10:00:10 51°37.728 2°31.926 34.5 10.9 30 38.4
2006-06-28 10:01:10 51°37.882 2°32.079 35.1 10.9 32 39.5
2006-06-28 10:02:12 51°38.042 2°32.238 35.9 11 33 40.4
2006-06-28 10:03:10 51°38.191 2°32.388 35.2 11 31 41.2
2006-06-28 10:04:10 51°38.348 2°32.544 35 11.1 32 40.7
2006-06-28 10:05:10 51°38.504 2°32.7 35.2 11.1 32 42.3
2006-06-28 10:06:10 51°38.661 2°32.858 34.7 11.1 30 41.8
2006-06-28 10:07:12 51°38.826 2°33.018 33.7 11.2 30 39
2006-06-28 10:08:10 51°38.978 2°33.17 35.2 11.1 33 41.2
2006-06-28 10:09:11 51°39.138 2°33.326 35 11.1 30 41
2006-06-28 10:10:12 51°39.269 2°33.491 58.5 6.8 65 39.6
2006-06-28 10:11:10 51°39.233 2°33.586 136.3 4.6 158 40.8
2006-06-28 10:12:10 51°39.156 2°33.564 208.1 5 212 41.6
2006-06-28 10:13:11 51°39.107 2°33.464 260.5 4.5 242 40.8
2006-06-28 10:14:11 51°39.076 2°33.355 273.6 3.4 245 40.9
2006-06-28 10:15:11 51°39.053 2°33.297 283.7 1.8 204 41.4
2006-06-28 10:16:11 51°39.027 2°33.309 275.8 1.6 210 -999
2006-06-28 10:17:12 51°39.012 2°33.257 310.4 2.4 255 41.7
2006-06-28 10:18:12 51°39.001 2°33.201 315.7 2.3 249 40.8
2006-06-28 10:19:10 51°39.031 2°33.129 348.7 5.4 335 40.8
2006-06-28 10:20:12 51°39.149 2°33.152 28.8 7.9 24 40
2006-06-28 10:21:11 51°39.274 2°33.285 38.1 10.2 34 40.2
2006-06-28 10:22:12 51°39.431 2°33.452 38.4 11.3 34 41.9
2006-06-28 10:23:11 51°39.585 2°33.621 37.2 11.4 32 42.5
2006-06-28 10:24:12 51°39.749 2°33.787 36.2 11.4 32 42.9
2006-06-28 10:25:11 51°39.909 2°33.947 36.9 11.6 32 40.6
2006-06-28 10:26:12 51°40.074 2°34.112 36.9 11.4 32 38
2006-06-28 10:27:12 51°40.237 2°34.273 36.8 11.4 33 36.8
2006-06-28 10:28:12 51°40.398 2°34.434 37.1 11.4 33 37.5
2006-06-28 10:29:11 51°40.556 2°34.591 36.2 11.4 32 37
2006-06-28 10:30:12 51°40.721 2°34.754 36.2 11.5 32 36.3
2006-06-28 10:31:12 51°40.882 2°34.916 37 11.4 33 36
2006-06-28 10:32:12 51°41.045 2°35.076 36.4 11.5 33 33.4
2006-06-28 10:33:10 51°41.189 2°35.252 45.6 11.3 42 32.5
2006-06-28 10:34:12 51°41.309 2°35.5 61.5 11.6 63 32.5
2006-06-28 10:35:11 51°41.354 2°35.795 87.3 11.8 92 30.5
2006-06-28 10:36:12 51°41.274 2°36.1 119.6 12.8 127 25.2
2006-06-28 10:37:11 51°41.15 2°36.372 117.5 12.7 126 22.7
2006-06-28 10:38:10 51°41.037 2°36.653 116.3 12.7 122 26
2006-06-28 10:39:12 51°40.926 2°36.962 114.2 12.7 120 34
2006-06-28 10:40:11 51°40.818 2°37.255 116 12.9 118 37.4
2006-06-28 10:41:11 51°40.711 2°37.556 114.3 13 120 38.3
2006-06-28 10:42:10 51°40.606 2°37.853 112.2 12.9 119 40.3
2006-06-28 10:43:11 51°40.499 2°38.16 113.4 13 119 38.6
2006-06-28 10:44:10 51°40.399 2°38.459 111.7 12.7 117 40.1
2006-06-28 10:45:10 51°40.294 2°38.761 114.6 12.9 120 40.7
2006-06-28 10:46:10 51°40.191 2°39.064 113.5 13 121 39.3
2006-06-28 10:47:10 51°40.089 2°39.366 113.3 12.7 119 42.6
2006-06-28 10:48:12 51°39.981 2°39.677 114.6 13 120 37.3
2006-06-28 10:49:10 51°39.882 2°39.967 113.3 12.8 120 38.5
2006-06-28 10:50:10 51°39.781 2°40.267 113.9 12.7 118 35.1
2006-06-28 10:51:12 51°39.673 2°40.577 112.5 12.8 116 34.9
2006-06-28 10:52:12 51°39.573 2°40.878 113.6 12.6 117 33.5
2006-06-28 10:53:12 51°39.46 2°41.17 119.4 13 125 27.6
2006-06-28 10:54:11 51°39.296 2°41.391 138.5 13.3 145 23.7
2006-06-28 10:55:11 51°39.104 2°41.578 146.2 13.7 152 20.9
2006-06-28 10:56:11 51°38.902 2°41.749 146.3 13.6 151 22.1
2006-06-28 10:57:11 51°38.69 2°41.896 154 14.2 158 26.7
2006-06-28 10:58:12 51°38.453 2°41.911 188.9 14.5 191 23.6
2006-06-28 10:59:11 51°38.219 2°41.827 190.3 14.6 193 25.5
2006-06-28 11:00:11 51°37.988 2°41.694 204 14.9 204 23.9
2006-06-28 11:01:11 51°37.763 2°41.533 202.3 14.9 204 14
2006-06-28 11:02:12 51°37.56 2°41.294 222.4 15 220 21.5
2006-06-28 11:03:12 51°37.421 2°40.976 251.3 14.5 248 19.6
2006-06-28 11:04:11 51°37.354 2°40.611 260.9 14.4 260 22.1
2006-06-28 11:05:12 51°37.336 2°40.226 274.2 14.2 267 27.7
2006-06-28 11:06:11 51°37.322 2°39.856 272.5 14.1 266 33.1
2006-06-28 11:07:11 51°37.306 2°39.48 272.3 14.1 266 37.7
2006-06-28 11:08:11 51°37.288 2°39.106 272.1 13.9 266 37.9
2006-06-28 11:09:11 51°37.273 2°38.732 274.3 13.8 266 42.5
2006-06-28 11:10:12 51°37.262 2°38.353 275 14.1 265 37.9
2006-06-28 11:11:11 51°37.251 2°37.987 272.7 14.1 267 36.4
2006-06-28 11:12:12 51°37.24 2°37.609 274.1 13.9 267 38
2006-06-28 11:13:12 51°37.235 2°37.238 276.3 13.9 269 38
2006-06-28 11:14:12 51°37.238 2°36.867 279.6 13.8 274 38.7
2006-06-28 11:15:12 51°37.248 2°36.498 280 13.9 273 38.8
2006-06-28 11:16:12 51°37.257 2°36.127 280.1 13.9 273 38.8
2006-06-28 11:17:11 51°37.242 2°35.761 273.6 14 268 36.9
2006-06-28 11:18:11 51°37.222 2°35.386 272.7 14.1 264 36.9
2006-06-28 11:19:12 51°37.205 2°35 272.9 14.3 265 30.4
2006-06-28 11:20:12 51°37.184 2°34.623 267.3 14.1 259 25.9
2006-06-28 11:21:11 51°37.092 2°34.274 245.1 14.4 240 14.7
2006-06-28 11:22:12 51°36.927 2°33.977 223.3 14.4 222 25.2
2006-06-28 11:23:11 51°36.734 2°33.758 206.8 14.1 204 31.3
2006-06-28 11:24:11 51°36.509 2°33.634 197 14.6 199 29.5
2006-06-28 11:25:12 51°36.281 2°33.5 200.2 14.2 202 32.6
2006-06-28 11:26:11 51°36.06 2°33.365 201.9 14.6 202 33.5
2006-06-28 11:27:11 51°35.836 2°33.23 198.1 14.2 200 34.3
2006-06-28 11:28:12 51°35.608 2°33.101 198 14.3 199 34.1
2006-06-28 11:29:11 51°35.386 2°32.985 197 14.1 199 33.6
2006-06-28 11:30:12 51°35.152 2°32.879 195.1 14.3 196 30.8
2006-06-28 11:31:12 51°34.926 2°32.765 197 14.2 198 30.3
2006-06-28 11:32:11 51°34.701 2°32.662 196.1 14.2 197 27.9
2006-06-28 11:33:12 51°34.469 2°32.553 195.9 14.4 197 26.6
2006-06-28 11:34:11 51°34.248 2°32.443 197 14.2 198 23.1
2006-06-28 11:35:11 51°34.02 2°32.333 194.2 14.1 193 27.9
2006-06-28 11:36:12 51°33.784 2°32.31 179.3 13.9 181 28.9
2006-06-28 11:37:11 51°33.555 2°32.287 181.9 14.3 184 28.3
2006-06-28 11:38:12 51°33.318 2°32.259 183 13.9 182 29.8
2006-06-28 11:39:12 51°33.084 2°32.235 182.5 14 182 27.7
2006-06-28 11:40:12 51°32.847 2°32.21 181.8 14.2 183 26
2006-06-28 11:41:12 51°32.609 2°32.181 182.9 14.2 184 27.1
2006-06-28 11:42:12 51°32.372 2°32.15 184.5 14.2 185 33.1
2006-06-28 11:43:12 51°32.135 2°32.124 182.5 14.3 186 34.3
2006-06-28 11:44:12 51°31.9 2°32.102 182.1 14.2 183 34.1
2006-06-28 11:45:11 51°31.671 2°32.082 179.9 13.8 178 36.3
2006-06-28 11:46:12 51°31.434 2°32.084 178.9 13.8 180 36.4
2006-06-28 11:47:11 51°31.212 2°32.126 157.4 13.3 157 36
2006-06-28 11:48:11 51°31.048 2°32.357 133.2 13.2 137 35.4
2006-06-28 11:49:12 51°30.873 2°32.59 139.3 13.1 141 34.7
2006-06-28 11:50:12 51°30.699 2°32.815 140 13.4 141 29.9
2006-06-28 11:51:11 51°30.529 2°33.041 138.6 13.5 141 23.3
2006-06-28 11:52:12 51°30.353 2°33.269 138.6 13.3 139 18.4
2006-06-28 11:53:10 51°30.185 2°33.486 138.8 13.3 141 17.8
2006-06-28 11:54:12 51°30.029 2°33.748 121.5 13.1 124 16.1
2006-06-28 11:55:10 51°29.92 2°34.035 114.2 12.9 117 25.4
2006-06-28 11:56:12 51°29.874 2°34.376 96.6 12.7 100 36.3
2006-06-28 11:57:10 51°29.827 2°34.692 109.4 12.8 117 38.2
2006-06-28 11:58:11 51°29.686 2°34.967 129.4 13.5 133 39
2006-06-28 11:59:11 51°29.537 2°35.231 130.8 13.5 131 39.9
2006-06-28 12:00:11 51°29.388 2°35.499 130.2 13.5 132 36.5
2006-06-28 12:01:12 51°29.236 2°35.772 130.8 13.5 136 36.5
2006-06-28 12:02:12 51°29.089 2°36.044 129.5 13.5 129 31.2
2006-06-28 12:03:11 51°28.941 2°36.307 130.2 13.6 133 25.4
2006-06-28 12:04:12 51°28.788 2°36.579 129.2 13.4 132 28.3
2006-06-28 12:05:12 51°28.63 2°36.836 135 13.5 138 35.9
2006-06-28 12:06:11 51°28.469 2°37.08 134.5 13.5 137 37.8
2006-06-28 12:07:12 51°28.297 2°37.324 139.7 13.7 141 37.7
2006-06-28 12:08:12 51°28.12 2°37.551 140.9 13.8 142 36.1
2006-06-28 12:09:12 51°27.94 2°37.773 141.8 13.6 143 37.2
2006-06-28 12:10:12 51°27.758 2°37.996 140.8 14 143 33.3
2006-06-28 12:11:12 51°27.561 2°38.183 150 13.6 150 33.7
2006-06-28 12:12:11 51°27.365 2°38.36 152.7 14 154 33.7
2006-06-28 12:13:12 51°27.15 2°38.515 155.7 13.8 157 34
2006-06-28 12:14:12 51°26.94 2°38.664 154.5 13.8 156 34.2
2006-06-28 12:15:12 51°26.73 2°38.81 155.9 13.7 157 33.7
2006-06-28 12:16:12 51°26.519 2°38.95 157 13.7 156 33.6
2006-06-28 12:17:11 51°26.311 2°39.083 158.1 13.8 159 35.1
2006-06-28 12:18:11 51°26.104 2°39.199 156.8 12.6 161 35.1
2006-06-28 12:19:12 51°25.896 2°39.32 158.3 13.2 160 31.7
2006-06-28 12:20:11 51°25.695 2°39.44 157.6 13.3 160 33.2
2006-06-28 12:21:10 51°25.49 2°39.548 159.8 13.3 162 31.3
2006-06-28 12:22:12 51°25.274 2°39.663 159.7 13.1 161 30
2006-06-28 12:23:12 51°25.063 2°39.777 160.1 13.5 161 27.8
2006-06-28 12:24:11 51°24.857 2°39.888 160.6 13.5 164 27.8
2006-06-28 12:25:11 51°24.639 2°39.966 167.6 13.7 168 27.3
2006-06-28 12:26:11 51°24.421 2°40.041 167 13.3 168 26.9
2006-06-28 12:27:11 51°24.203 2°40.124 164 13.3 165 27.7
2006-06-28 12:28:11 51°23.984 2°40.208 166.2 13.5 166 27
2006-06-28 12:29:12 51°23.764 2°40.299 166.2 13.7 166 30
2006-06-28 12:30:12 51°23.544 2°40.387 166.7 13.7 165 30.5
2006-06-28 12:31:12 51°23.326 2°40.476 166.6 13.4 168 31.1
2006-06-28 12:32:12 51°23.113 2°40.549 165.5 13 167 30.9
2006-06-28 12:33:11 51°22.905 2°40.621 167 13.1 168 30.9
2006-06-28 12:34:12 51°22.69 2°40.701 165.4 12.9 166 31.1
2006-06-28 12:35:12 51°22.478 2°40.785 166.4 13.2 167 31.8
2006-06-28 12:36:12 51°22.272 2°40.902 159.6 13.2 161 29.9
2006-06-28 12:37:10 51°22.075 2°41.025 159.5 13.3 158 29.1
2006-06-28 12:38:12 51°21.863 2°41.162 160.3 13.4 160 29.3
2006-06-28 12:39:12 51°21.657 2°41.29 158.9 13.5 159 28.5
2006-06-28 12:40:10 51°21.459 2°41.421 159.8 13.4 156 28.3
2006-06-28 12:41:11 51°21.251 2°41.557 156.3 13.1 155 23.2
2006-06-28 12:42:12 51°21.052 2°41.732 153.8 13.5 151 26.2
2006-06-28 12:43:11 51°20.888 2°41.961 136.2 13.5 134 22.1
2006-06-28 12:44:12 51°20.727 2°42.228 138.1 13.9 134 18.9
2006-06-28 12:45:11 51°20.596 2°42.518 124.2 13.7 124 23.2
2006-06-28 12:46:11 51°20.47 2°42.813 126.3 13.3 122 24.5
2006-06-28 12:47:11 51°20.356 2°43.121 121.1 13.4 120 27.7
2006-06-28 12:48:12 51°20.244 2°43.434 123.3 13.5 122 28.4
2006-06-28 12:49:12 51°20.131 2°43.731 125.3 13 121 27.9
2006-06-28 12:50:12 51°20.012 2°44.019 124.8 12.6 125 27.2
2006-06-28 12:51:12 51°19.898 2°44.307 125.8 13 122 26.3
2006-06-28 12:52:10 51°19.786 2°44.585 125.1 13 123 24.6
2006-06-28 12:53:12 51°19.667 2°44.889 126.1 13.2 121 23.6
2006-06-28 12:54:11 51°19.552 2°45.182 124.3 13.4 121 16.9
2006-06-28 12:55:12 51°19.429 2°45.494 124.8 13.7 122 14.6
2006-06-28 12:56:10 51°19.312 2°45.788 126.3 13.6 121 19
2006-06-28 12:57:11 51°19.195 2°46.092 125.2 13.1 124 21.6
2006-06-28 12:58:12 51°19.079 2°46.395 123.8 13.1 121 23.6
2006-06-28 12:59:12 51°18.966 2°46.695 124.7 13.2 122 23.2
2006-06-28 13:00:11 51°18.856 2°46.989 124.8 13.2 123 22.1
2006-06-28 13:01:12 51°18.736 2°47.289 127.4 13.3 123 20.2
2006-06-28 13:02:12 51°18.616 2°47.583 126.4 13.3 125 18.9
2006-06-28 13:03:12 51°18.499 2°47.888 124.6 13.7 121 16.2
2006-06-28 13:04:12 51°18.388 2°48.198 123.4 13.3 119 14.2
2006-06-28 13:05:11 51°18.283 2°48.514 121.7 13.8 117 12.7
2006-06-28 13:06:12 51°18.179 2°48.847 121.2 14.1 115 12.7
2006-06-28 13:07:12 51°18.081 2°49.178 119 13.9 112 14.2
2006-06-28 13:08:12 51°17.986 2°49.509 121.5 13.8 116 15.6
2006-06-28 13:09:11 51°17.89 2°49.835 118 13.6 117 15.8
2006-06-28 13:10:12 51°17.79 2°50.169 120.3 13.6 115 15.2
2006-06-28 13:11:10 51°17.695 2°50.481 120.1 13.7 116 14.4
2006-06-28 13:12:12 51°17.589 2°50.812 125.5 13.5 120 12.7
2006-06-28 13:13:12 51°17.473 2°51.121 130.2 13.5 127 11.4
2006-06-28 13:14:11 51°17.345 2°51.406 130.6 13.6 126 13.5
2006-06-28 13:15:11 51°17.204 2°51.681 135.8 13.3 131 13.4
2006-06-28 13:16:11 51°17.062 2°51.952 139.5 13.3 134 13.2
2006-06-28 13:17:12 51°16.892 2°52.188 148.1 13.4 141 12.4
2006-06-28 13:18:10 51°16.718 2°52.389 149.7 13 145 12
2006-06-28 13:19:11 51°16.534 2°52.599 150.2 13.4 145 14
2006-06-28 13:20:12 51°16.349 2°52.807 154.3 13.2 148 14.6
2006-06-28 13:21:11 51°16.166 2°52.996 154.4 13.5 147 14.4
2006-06-28 13:22:11 51°15.979 2°53.178 155.7 13 150 14.2
2006-06-28 13:23:11 51°15.794 2°53.361 153.1 13.1 148 13.7
2006-06-28 13:24:11 51°15.608 2°53.541 154.8 13.2 148 13.1
2006-06-28 13:25:11 51°15.422 2°53.721 155.5 12.9 149 12.7
2006-06-28 13:26:11 51°15.242 2°53.907 152.4 12.3 147 12.1
2006-06-28 13:27:11 51°15.073 2°54.083 150.7 11.9 144 11.6
2006-06-28 13:28:12 51°14.902 2°54.27 152.4 12.3 145 11.7
2006-06-28 13:29:11 51°14.739 2°54.452 153 11.9 146 12.2
2006-06-28 13:30:12 51°14.585 2°54.67 142.9 12.3 135 12.3
2006-06-28 13:31:12 51°14.442 2°54.909 141.4 12.4 133 13.5
2006-06-28 13:32:12 51°14.314 2°55.168 133.9 11.6 130 13.1
2006-06-28 13:33:12 51°14.193 2°55.356 146.8 9 145 13.1
2006-06-28 13:34:12 51°14.078 2°55.445 157 7.1 156 13.2
2006-06-28 13:35:11 51°13.977 2°55.517 156.2 6.7 154 13.3
2006-06-28 13:36:12 51°13.863 2°55.604 155 7.8 153 13.1
2006-06-28 13:37:12 51°13.764 2°55.702 144.7 6 142 12.9
2006-06-28 13:38:12 51°13.71 2°55.793 128.3 3.9 127 14.2
2006-06-28 13:39:12 51°13.68 2°55.866 124.8 3 122 11.4
2006-06-28 13:40:12 51°13.655 2°55.925 126.7 2.5 124 11.4
2006-06-28 13:41:12 51°13.634 2°55.979 118.5 2.3 116 11.7
2006-06-28 13:42:12 51°13.618 2°56.04 111.8 2.5 110 11.1
2006-06-28 13:43:12 51°13.608 2°56.08 118.3 0.9 120 9.7
2006-06-28 13:44:12 51°13.6 2°56.095 114.6 0.2 159 8.6